Terminal Aerodrome Forecast
Issued by NWS

Home | Current Version | Previous Version | Text Only | Print | Product List | Glossary On
Versions: 1 2 3 4 5 6 7 8 9 10 11 12 13 14 15
000
FTUS43 KBIS 031136
TAFJMS
TAF
KJMS 031136Z 0312/0412 35004KT 2SM FU VV035
      TEMPO 0312/0315 1SM FU VV040
     FM032000 01006KT 5SM FU SCT040
     FM040000 13005KT P6SM BKN050=

USA.gov is the U.S. government's official web portal to all federal, state and local government web resources and services.